TimeAKST,TemperatureF,Dew PointF,Humidity,Sea Level PressureIn,VisibilityMPH,Wind Direction,Wind SpeedMPH,Gust SpeedMPH,PrecipitationIn,Events,Conditions,WindDirDegrees,DateUTC
2:37 AM,-14.8,-20.2,77,30.19,2.5,NE,16.1,-,N/A,Snow,Blowing Snow,50,2013-02-04 11:37:00
2:53 AM,-14.8,-20.2,77,30.19,2.5,NE,15.0,-,N/A,Snow,Blowing Snow,50,2013-02-04 11:53:00
3:00 AM,-14.8,-20.2,77,30.19,4.0,NE,13.8,-,N/A,Snow,Blowing Snow,50,2013-02-04 12:00:00
3:53 AM,-15.0,-20.0,78,30.20,3.0,NE,16.1,-,N/A,Snow,Blowing Snow,40,2013-02-04 12:53:00
4:53 AM,-16.1,-20.9,79,30.21,4.0,NE,15.0,-,N/A,Snow,Blowing Snow,40,2013-02-04 13:53:00
5:53 AM,-16.1,-20.0,82,30.21,10.0,NE,16.1,-,N/A,,Clear,40,2013-02-04 14:53:00
6:53 AM,-16.1,-20.0,82,30.22,7.0,NE,16.1,-,N/A,,Clear,40,2013-02-04 15:53:00
7:53 AM,-16.1,-20.0,82,30.23,10.0,NE,13.8,-,N/A,,Clear,40,2013-02-04 16:53:00
8:53 AM,-16.1,-20.9,79,30.24,10.0,NE,13.8,-,N/A,,Clear,40,2013-02-04 17:53:00
9:53 AM,-16.1,-20.9,79,30.25,10.0,NE,12.7,-,N/A,,Clear,40,2013-02-04 18:53:00
10:53 AM,-16.1,-20.9,79,30.26,7.0,NE,11.5,-,N/A,,Scattered Clouds,40,2013-02-04 19:53:00
11:53 AM,-17.0,-20.9,82,30.27,7.0,NNE,12.7,-,N/A,,Scattered Clouds,30,2013-02-04 20:53:00
12:53 PM,-17.0,-20.9,82,30.28,10.0,NE,12.7,-,N/A,,Scattered Clouds,40,2013-02-04 21:53:00
1:53 PM,-17.0,-22.0,78,30.28,10.0,NNE,12.7,-,N/A,,Scattered Clouds,30,2013-02-04 22:53:00
2:53 PM,-17.0,-22.0,78,30.28,10.0,NE,11.5,-,N/A,,Scattered Clouds,40,2013-02-04 23:53:00
3:53 PM,-18.0,-22.0,82,30.28,10.0,NNE,10.4,-,N/A,,Scattered Clouds,30,2013-02-05 00:53:00
4:53 PM,-18.0,-22.0,82,30.28,8.0,NNE,11.5,-,N/A,,Clear,30,2013-02-05 01:53:00
5:53 PM,-18.0,-22.0,82,30.28,10.0,NE,10.4,-,N/A,,Clear,40,2013-02-05 02:53:00
6:53 PM,-18.0,-22.0,82,30.28,10.0,NE,10.4,-,N/A,,Clear,40,2013-02-05 03:53:00
7:53 PM,-18.0,-23.1,78,30.29,9.0,NNE,9.2,-,N/A,,Clear,30,2013-02-05 04:53:00
8:53 PM,-18.9,-24.0,78,30.29,10.0,NE,9.2,-,N/A,,Clear,40,2013-02-05 05:53:00
9:53 PM,-18.9,-23.1,81,30.29,10.0,NE,8.1,-,N/A,,Clear,40,2013-02-05 06:53:00
10:53 PM,-18.0,-23.1,78,30.29,10.0,NNE,9.2,-,N/A,,Clear,30,2013-02-05 07:53:00
11:53 PM,-18.9,-23.1,81,30.29,10.0,NE,9.2,-,N/A,,Clear,40,2013-02-05 08:53:00